createdAt,value
2023-03-26T00:02:58.166Z,1.10
2023-03-26T00:08:01.790Z,1.20
2023-03-26T00:13:04.272Z,1.03
2023-03-26T00:18:06.508Z,1.00
2023-03-26T00:23:09.835Z,0.97
2023-03-26T00:28:12.011Z,1.10
2023-03-26T00:33:14.837Z,0.90
2023-03-26T00:38:18.165Z,0.73
2023-03-26T00:43:22.055Z,1.20
2023-03-26T00:48:31.568Z,0.90
2023-03-26T00:53:47.862Z,1.40
2023-03-26T00:58:50.551Z,1.00
2023-03-26T01:04:06.889Z,1.50
2023-03-26T01:09:16.108Z,1.13
2023-03-26T01:14:20.882Z,1.00
2023-03-26T01:19:29.146Z,1.37
2023-03-26T01:24:32.292Z,1.50
2023-03-26T01:29:41.952Z,1.70
2023-03-26T01:34:53.475Z,1.70
2023-03-26T01:39:59.009Z,1.60
2023-03-26T01:45:07.215Z,1.50
2023-03-26T01:50:10.674Z,1.93
2023-03-26T01:55:14.530Z,1.40
2023-03-26T02:00:24.676Z,1.70
2023-03-26T02:05:31.986Z,1.57
2023-03-26T02:10:40.000Z,1.57
2023-03-26T02:15:55.602Z,1.60
2023-03-26T02:20:57.843Z,1.40
2023-03-26T02:26:01.777Z,1.10
2023-03-26T02:31:04.445Z,1.23
2023-03-26T02:36:07.807Z,1.33
2023-03-26T02:41:11.363Z,0.77
2023-03-26T02:46:13.292Z,0.97
2023-03-26T02:51:15.662Z,1.47
2023-03-26T02:56:19.101Z,1.30
2023-03-26T03:01:21.670Z,0.97
2023-03-26T03:06:23.761Z,2.00
2023-03-26T03:11:26.831Z,1.80
2023-03-26T03:16:30.496Z,1.53
2023-03-26T03:21:32.595Z,1.30
2023-03-26T03:26:36.133Z,1.13
2023-03-26T03:31:38.166Z,0.90
2023-03-26T03:36:40.357Z,0.97
2023-03-26T03:41:43.882Z,0.93
2023-03-26T03:46:46.039Z,0.70
2023-03-26T03:51:48.132Z,0.70
2023-03-26T03:56:51.571Z,0.90
2023-03-26T04:01:54.266Z,0.83
2023-03-26T04:06:55.969Z,1.03
2023-03-26T04:12:02.482Z,1.10
2023-03-26T04:17:04.301Z,1.17
2023-03-26T04:22:06.895Z,1.40
2023-03-26T04:27:15.027Z,1.43
2023-03-26T04:32:23.976Z,1.30
2023-03-26T04:37:28.444Z,1.37
2023-03-26T04:42:31.749Z,1.17
2023-03-26T04:47:34.357Z,1.50
2023-03-26T04:52:37.555Z,1.20
2023-03-26T04:57:43.086Z,1.30
2023-03-26T05:02:45.228Z,1.63
2023-03-26T05:07:47.441Z,1.27
2023-03-26T05:12:50.722Z,1.40
2023-03-26T05:17:52.833Z,1.37
2023-03-26T05:22:55.156Z,1.53
2023-03-26T05:27:58.734Z,1.60
2023-03-26T05:33:00.979Z,1.53
2023-03-26T05:38:02.837Z,1.50
2023-03-26T05:43:06.457Z,1.33
2023-03-26T05:48:08.753Z,1.87
2023-03-26T05:53:10.731Z,1.70
2023-03-26T05:58:14.573Z,1.70
2023-03-26T06:03:16.896Z,2.30
2023-03-26T06:08:19.122Z,2.13
2023-03-26T06:13:22.824Z,1.77
2023-03-26T06:18:25.714Z,1.70
2023-03-26T06:23:27.891Z,1.63
2023-03-26T06:28:31.378Z,1.80
2023-03-26T06:33:33.144Z,2.00
2023-03-26T06:38:34.884Z,1.67
2023-03-26T06:43:38.228Z,1.30
2023-03-26T06:48:41.238Z,0.80
2023-03-26T06:53:43.344Z,0.80
2023-03-26T06:58:46.745Z,1.00
2023-03-26T07:03:49.162Z,0.80
2023-03-26T07:08:51.500Z,0.80
2023-03-26T07:13:55.296Z,1.27
2023-03-26T07:18:57.369Z,0.80
2023-03-26T07:23:59.639Z,1.07
2023-03-26T07:29:10.834Z,0.70
2023-03-26T07:34:38.422Z,1.20
2023-03-26T07:39:47.791Z,0.90
2023-03-26T07:45:02.131Z,1.90
2023-03-26T07:50:05.322Z,0.97
2023-03-26T07:55:08.548Z,1.43
2023-03-26T08:00:17.652Z,1.10
2023-03-26T08:05:26.928Z,1.43
2023-03-26T08:10:36.742Z,1.30
2023-03-26T08:15:47.329Z,1.37
2023-03-26T08:20:51.389Z,1.10
2023-03-26T08:26:01.021Z,1.40
2023-03-26T08:31:10.727Z,0.93
2023-03-26T08:36:12.639Z,0.90
2023-03-26T08:41:48.349Z,0.70
2023-03-26T08:47:11.589Z,0.80
2023-03-26T08:52:51.343Z,0.90
2023-03-26T08:58:31.403Z,1.33
2023-03-26T09:04:09.235Z,0.70
2023-03-26T09:09:38.130Z,1.07
2023-03-26T09:15:07.178Z,0.90
2023-03-26T09:20:45.997Z,0.90
2023-03-26T09:26:05.956Z,1.20
2023-03-26T09:31:26.716Z,1.10
2023-03-26T09:36:54.301Z,0.90
2023-03-26T09:42:08.004Z,0.90
2023-03-26T09:47:30.692Z,1.20
2023-03-26T09:53:00.189Z,0.97
2023-03-26T09:58:15.246Z,2.63
2023-03-26T10:03:28.881Z,0.70
2023-03-26T10:09:02.792Z,0.90
2023-03-26T10:14:13.975Z,0.70
2023-03-26T10:19:34.591Z,1.23
2023-03-26T10:25:02.372Z,0.60
2023-03-26T10:30:48.809Z,0.57
2023-03-26T10:36:02.553Z,0.70
2023-03-26T10:41:13.884Z,0.80
2023-03-26T10:46:50.144Z,0.67
2023-03-26T10:51:56.124Z,0.83
2023-03-26T10:57:02.587Z,0.67
2023-03-26T11:02:29.284Z,0.70
2023-03-26T11:07:39.816Z,0.50
2023-03-26T11:12:47.311Z,0.80
2023-03-26T11:17:58.876Z,0.70
2023-03-26T11:23:16.353Z,0.77
2023-03-26T11:28:30.038Z,0.47
2023-03-26T11:33:37.624Z,0.60
2023-03-26T11:38:51.219Z,0.70
2023-03-26T11:43:57.492Z,0.83
2023-03-26T11:49:01.308Z,0.63
2023-03-26T11:54:05.540Z,0.60
2023-03-26T11:59:14.421Z,0.60
2023-03-26T12:04:18.631Z,0.90
2023-03-26T12:09:21.003Z,0.70
2023-03-26T12:14:28.039Z,0.53
2023-03-26T12:19:37.787Z,1.07
2023-03-26T12:24:39.931Z,0.70
2023-03-26T12:29:43.236Z,0.87
2023-03-26T12:34:45.182Z,0.60
2023-03-26T12:40:07.910Z,1.13
2023-03-26T12:45:14.228Z,0.53
2023-03-26T12:50:16.808Z,0.70
2023-03-26T12:55:36.144Z,1.33
2023-03-26T13:00:49.436Z,0.67
2023-03-26T13:06:07.575Z,0.50
2023-03-26T13:11:18.372Z,0.63
2023-03-26T13:16:30.249Z,0.50
2023-03-26T13:21:45.041Z,0.50
2023-03-26T13:26:59.550Z,0.50
2023-03-26T13:32:12.719Z,0.87
2023-03-26T13:37:20.018Z,0.50
2023-03-26T13:42:37.291Z,0.80
2023-03-26T13:47:45.568Z,0.50
2023-03-26T13:52:52.849Z,0.70
2023-03-26T13:58:01.845Z,0.50
2023-03-26T14:03:12.972Z,0.67
2023-03-26T14:08:21.986Z,0.60
2023-03-26T14:13:29.356Z,0.70
2023-03-26T14:18:41.093Z,0.50
2023-03-26T14:24:06.295Z,0.70
2023-03-26T14:29:29.833Z,0.83
2023-03-26T14:34:47.214Z,0.70
2023-03-26T14:40:00.937Z,0.63
2023-03-26T14:45:39.149Z,0.50
2023-03-26T14:50:58.489Z,0.67
2023-03-26T14:56:38.629Z,0.60
2023-03-26T15:02:11.054Z,0.53
2023-03-26T15:08:00.610Z,0.50
2023-03-26T15:13:26.044Z,1.43
2023-03-26T15:19:00.929Z,0.77
2023-03-26T15:24:26.562Z,0.60
2023-03-26T15:29:57.346Z,0.60
2023-03-26T15:35:42.729Z,0.70
2023-03-26T15:40:54.583Z,1.90
2023-03-26T15:46:27.326Z,0.90
2023-03-26T15:51:47.542Z,1.30
2023-03-26T15:57:15.596Z,0.80
2023-03-26T16:02:29.557Z,0.90
2023-03-26T16:07:53.639Z,1.77
2023-03-26T16:13:20.791Z,0.93
2023-03-26T16:18:34.849Z,2.07
2023-03-26T16:23:53.948Z,2.20
2023-03-26T16:29:11.777Z,1.10
2023-03-26T16:34:28.041Z,0.83
2023-03-26T16:39:42.259Z,1.00
2023-03-26T16:44:50.961Z,1.27
2023-03-26T16:50:10.407Z,0.97
2023-03-26T16:55:20.793Z,1.37
2023-03-26T17:00:42.709Z,1.20
2023-03-26T17:06:02.717Z,1.27
2023-03-26T17:11:15.912Z,1.03
2023-03-26T17:16:23.652Z,0.70
2023-03-26T17:21:45.732Z,0.80
2023-03-26T17:27:00.339Z,0.90
2023-03-26T17:32:09.268Z,1.33
2023-03-26T17:37:40.757Z,1.13
2023-03-26T17:49:22.430Z,1.03
2023-03-26T17:54:30.425Z,1.23
2023-03-26T17:59:32.731Z,1.10
2023-03-26T18:04:38.793Z,1.27
2023-03-26T18:09:55.973Z,1.47
2023-03-26T18:15:30.369Z,1.63
2023-03-26T18:20:36.548Z,1.33
2023-03-26T18:25:38.719Z,1.47
2023-03-26T18:30:48.446Z,1.17
2023-03-26T18:35:54.807Z,1.60
2023-03-26T18:40:56.833Z,1.30
2023-03-26T18:45:59.747Z,1.77
2023-03-26T18:51:06.010Z,0.97
2023-03-26T18:56:19.592Z,1.13
2023-03-26T19:01:25.923Z,0.97
2023-03-26T19:06:30.298Z,1.00
2023-03-26T19:11:32.853Z,0.80
2023-03-26T19:16:35.742Z,1.10
2023-03-26T19:21:39.778Z,1.20
2023-03-26T19:26:42.900Z,1.23
2023-03-26T19:31:50.838Z,0.90
2023-03-26T19:36:56.774Z,1.53
2023-03-26T19:41:59.213Z,1.30
2023-03-26T19:47:02.987Z,1.33
2023-03-26T19:52:13.511Z,1.57
2023-03-26T19:57:16.259Z,1.57
2023-03-26T20:02:18.883Z,1.50
2023-03-26T20:07:35.597Z,1.80
2023-03-26T20:12:38.434Z,1.93
2023-03-26T20:17:40.580Z,1.90
2023-03-26T20:22:44.539Z,2.33
2023-03-26T20:27:46.646Z,1.70
2023-03-26T20:32:48.978Z,1.03
2023-03-26T20:37:53.056Z,2.17
2023-03-26T20:42:54.790Z,2.00
2023-03-26T20:47:56.988Z,1.97
2023-03-26T20:53:00.145Z,1.80
2023-03-26T20:58:02.754Z,1.60
2023-03-26T21:03:05.379Z,1.80
2023-03-26T21:08:15.195Z,1.73
2023-03-26T21:13:30.605Z,1.80
2023-03-26T21:18:33.229Z,1.93
2023-03-26T21:23:40.596Z,1.13
2023-03-26T21:28:46.552Z,1.23
2023-03-26T21:33:49.582Z,1.37
2023-03-26T21:38:53.704Z,1.30
2023-03-26T21:43:55.495Z,1.20
2023-03-26T21:48:58.308Z,1.50
2023-03-26T21:54:02.489Z,1.10
2023-03-26T21:59:11.565Z,1.33
2023-03-26T22:04:19.888Z,1.17
2023-03-26T22:09:35.594Z,1.03
2023-03-26T22:14:38.887Z,1.47
2023-03-26T22:19:40.586Z,1.50
2023-03-26T22:24:43.893Z,1.87
2023-03-26T22:29:45.642Z,1.83
2023-03-26T22:34:47.710Z,1.00
2023-03-26T22:39:50.796Z,1.33
2023-03-26T22:44:52.999Z,1.10
2023-03-26T22:49:54.796Z,1.40
2023-03-26T22:54:58.053Z,1.07
2023-03-26T23:00:00.064Z,1.77
2023-03-26T23:05:02.221Z,1.53
2023-03-26T23:10:06.991Z,1.80
2023-03-26T23:15:10.439Z,1.10
2023-03-26T23:20:12.676Z,1.17
2023-03-26T23:25:16.161Z,1.20
2023-03-26T23:30:18.509Z,1.40
2023-03-26T23:35:20.489Z,0.93
2023-03-26T23:40:23.542Z,1.37
2023-03-26T23:45:25.571Z,1.33
2023-03-26T23:50:27.659Z,0.90
2023-03-26T23:55:31.124Z,0.70
